Terminal Aerodrome Forecast
Issued by NWS Charleston, WV

Current Version | Previous Version | Text Only | Print | Product List | Glossary Off
Versions: 1 2 3 4 5 6 7 8 9 10 11 12 13 14 15 16 17 18 19 20 21 22 23 24 25 26 27 28 29

000
FTUS41 KRLX 240900 AAB
TAFCRW
TAF AMD
KCRW 240910Z 2409/2506 VRB03KT 4SM BR BKN001 OVC012
     FM241100 01004KT 4SM -SHRA BR SCT001 OVC010
     FM241500 35005KT 6SM BR OVC020
     FM241700 34005KT P6SM OVC025
     FM242100 34006KT P6SM BKN030
     FM250000 00000KT P6SM SCT040
     FM250500 00000KT 5SM BR SCT040=

USA.gov is the U.S. government's official web portal to all federal, state and local government web resources and services.